sensor_id;sensor_type;location;lat;lon;timestamp;pressure;altitude;pressure_sealevel;temperature;humidity
71239;BME280;61342;51.442;7.370;2023-03-04T00:00:12;100937.00;;;5.39;82.52
71239;BME280;61342;51.442;7.370;2023-03-04T00:01:13;100943.97;;;5.47;82.28
71239;BME280;61342;51.442;7.370;2023-03-04T00:02:14;100943.81;;;5.41;82.47
71239;BME280;61342;51.442;7.370;2023-03-04T00:03:15;100932.25;;;5.45;82.27
71239;BME280;61342;51.442;7.370;2023-03-04T00:04:16;100938.25;;;5.47;82.31
71239;BME280;61342;51.442;7.370;2023-03-04T00:05:16;100941.44;;;5.49;82.00
71239;BME280;61342;51.442;7.370;2023-03-04T00:06:17;100943.03;;;5.50;81.95
71239;BME280;61342;51.442;7.370;2023-03-04T00:07:17;100935.72;;;5.49;82.18
71239;BME280;61342;51.442;7.370;2023-03-04T00:08:18;100936.50;;;5.49;82.26
71239;BME280;61342;51.442;7.370;2023-03-04T00:09:18;100937.00;;;5.48;81.98
71239;BME280;61342;51.442;7.370;2023-03-04T00:10:18;100934.47;;;5.50;82.12
71239;BME280;61342;51.442;7.370;2023-03-04T00:11:19;100925.28;;;5.46;81.71
71239;BME280;61342;51.442;7.370;2023-03-04T00:12:19;100937.13;;;5.53;82.05
71239;BME280;61342;51.442;7.370;2023-03-04T00:13:20;100931.63;;;5.50;81.92
71239;BME280;61342;51.442;7.370;2023-03-04T00:14:21;100935.88;;;5.54;81.71
71239;BME280;61342;51.442;7.370;2023-03-04T00:15:21;100943.66;;;5.54;81.66
71239;BME280;61342;51.442;7.370;2023-03-04T00:16:22;100942.06;;;5.53;81.51
71239;BME280;61342;51.442;7.370;2023-03-04T00:17:26;100922.59;;;5.42;81.80
71239;BME280;61342;51.442;7.370;2023-03-04T00:18:29;100933.81;;;5.55;81.31
71239;BME280;61342;51.442;7.370;2023-03-04T00:19:30;100927.31;;;5.54;81.56
71239;BME280;61342;51.442;7.370;2023-03-04T00:20:30;100927.31;;;5.54;81.23
71239;BME280;61342;51.442;7.370;2023-03-04T00:21:32;100934.13;;;5.57;81.30
71239;BME280;61342;51.442;7.370;2023-03-04T00:22:32;100932.88;;;5.58;81.24
71239;BME280;61342;51.442;7.370;2023-03-04T00:23:33;100929.53;;;5.59;81.23
71239;BME280;61342;51.442;7.370;2023-03-04T00:24:33;100927.94;;;5.58;80.89
71239;BME280;61342;51.442;7.370;2023-03-04T00:25:34;100925.41;;;5.60;80.94
71239;BME280;61342;51.442;7.370;2023-03-04T00:26:34;100931.91;;;5.61;80.86
71239;BME280;61342;51.442;7.370;2023-03-04T00:27:35;100935.53;;;5.61;80.92
71239;BME280;61342;51.442;7.370;2023-03-04T00:28:35;100934.75;;;5.61;80.55
71239;BME280;61342;51.442;7.370;2023-03-04T00:29:36;100935.03;;;5.63;80.78
71239;BME280;61342;51.442;7.370;2023-03-04T00:30:36;100928.56;;;5.62;80.63
71239;BME280;61342;51.442;7.370;2023-03-04T00:31:36;100934.59;;;5.64;80.69
71239;BME280;61342;51.442;7.370;2023-03-04T00:32:37;100931.25;;;5.66;80.86
71239;BME280;61342;51.442;7.370;2023-03-04T00:33:37;100935.66;;;5.67;80.23
71239;BME280;61342;51.442;7.370;2023-03-04T00:34:39;100923.97;;;5.65;80.45
71239;BME280;61342;51.442;7.370;2023-03-04T00:35:39;100925.06;;;5.67;80.43
71239;BME280;61342;51.442;7.370;2023-03-04T00:36:40;100924.59;;;5.69;80.41
71239;BME280;61342;51.442;7.370;2023-03-04T00:37:43;100917.63;;;5.70;80.15
71239;BME280;61342;51.442;7.370;2023-03-04T00:38:43;100923.31;;;5.70;80.39
71239;BME280;61342;51.442;7.370;2023-03-04T00:39:44;100925.69;;;5.71;80.50
71239;BME280;61342;51.442;7.370;2023-03-04T00:40:44;100919.66;;;5.69;80.36
71239;BME280;61342;51.442;7.370;2023-03-04T00:41:44;100930.91;;;5.72;80.27
71239;BME280;61342;51.442;7.370;2023-03-04T00:42:45;100929.66;;;5.73;80.43
71239;BME280;61342;51.442;7.370;2023-03-04T00:43:45;100919.19;;;5.70;80.32
71239;BME280;61342;51.442;7.370;2023-03-04T00:44:45;100927.13;;;5.75;80.31
71239;BME280;61342;51.442;7.370;2023-03-04T00:45:46;100922.69;;;5.74;80.32
71239;BME280;61342;51.442;7.370;2023-03-04T00:46:46;100927.13;;;5.75;80.14
71239;BME280;61342;51.442;7.370;2023-03-04T00:47:46;100920.16;;;5.76;80.17
71239;BME280;61342;51.442;7.370;2023-03-04T00:48:47;100910.47;;;5.74;80.43
71239;BME280;61342;51.442;7.370;2023-03-04T00:49:47;100913.78;;;5.72;80.23
71239;BME280;61342;51.442;7.370;2023-03-04T00:50:47;100916.97;;;5.74;80.11
71239;BME280;61342;51.442;7.370;2023-03-04T00:51:50;100920.47;;;5.78;79.99
71239;BME280;61342;51.442;7.370;2023-03-04T00:52:50;100921.75;;;5.77;80.27
71239;BME280;61342;51.442;7.370;2023-03-04T00:53:51;100927.75;;;5.79;80.39
71239;BME280;61342;51.442;7.370;2023-03-04T00:54:51;100922.03;;;5.79;80.23
71239;BME280;61342;51.442;7.370;2023-03-04T00:55:52;100923.63;;;5.80;80.08
71239;BME280;61342;51.442;7.370;2023-03-04T00:56:52;100912.22;;;5.80;80.16
71239;BME280;61342;51.442;7.370;2023-03-04T00:57:52;100915.84;;;5.81;79.84
71239;BME280;61342;51.442;7.370;2023-03-04T00:58:53;100910.94;;;5.81;80.19
71239;BME280;61342;51.442;7.370;2023-03-04T00:59:53;100910.94;;;5.81;80.19
71239;BME280;61342;51.442;7.370;2023-03-04T01:00:53;100912.22;;;5.80;80.06
71239;BME280;61342;51.442;7.370;2023-03-04T01:01:54;100908.56;;;5.80;79.80
71239;BME280;61342;51.442;7.370;2023-03-04T01:02:54;100909.69;;;5.82;79.77
71239;BME280;61342;51.442;7.370;2023-03-04T01:03:54;100911.25;;;5.83;79.97
71239;BME280;61342;51.442;7.370;2023-03-04T01:04:55;100916.66;;;5.81;79.92
71239;BME280;61342;51.442;7.370;2023-03-04T01:05:55;100917.25;;;5.85;79.88
71239;BME280;61342;51.442;7.370;2023-03-04T01:06:55;100914.41;;;5.85;79.98
71239;BME280;61342;51.442;7.370;2023-03-04T01:07:56;100907.59;;;5.83;80.17
71239;BME280;61342;51.442;7.370;2023-03-04T01:08:56;100915.19;;;5.86;79.88
71239;BME280;61342;51.442;7.370;2023-03-04T01:09:56;100918.03;;;5.86;79.87
71239;BME280;61342;51.442;7.370;2023-03-04T01:10:57;100915.19;;;5.86;80.06
71239;BME280;61342;51.442;7.370;2023-03-04T01:11:57;100906.16;;;5.87;80.12
71239;BME280;61342;51.442;7.370;2023-03-04T01:12:58;100917.56;;;5.87;79.82
71239;BME280;61342;51.442;7.370;2023-03-04T01:13:58;100914.72;;;5.87;79.83
71239;BME280;61342;51.442;7.370;2023-03-04T01:14:59;100911.06;;;5.87;79.80
71239;BME280;61342;51.442;7.370;2023-03-04T01:15:59;100912.34;;;5.86;79.84
71239;BME280;61342;51.442;7.370;2023-03-04T01:17:00;100909.81;;;5.88;79.67
71239;BME280;61342;51.442;7.370;2023-03-04T01:18:01;100906.34;;;5.84;80.07
71239;BME280;61342;51.442;7.370;2023-03-04T01:19:01;100905.03;;;5.85;79.65
71239;BME280;61342;51.442;7.370;2023-03-04T01:20:03;100906.16;;;5.87;79.64
71239;BME280;61342;51.442;7.370;2023-03-04T01:21:05;100903.28;;;5.87;79.59
71239;BME280;61342;51.442;7.370;2023-03-04T01:22:05;100899.34;;;5.85;79.44
71239;BME280;61342;51.442;7.370;2023-03-04T01:23:06;100905.66;;;5.89;79.48
71239;BME280;61342;51.442;7.370;2023-03-04T01:24:06;100903.63;;;5.89;79.72
71239;BME280;61342;51.442;7.370;2023-03-04T01:25:07;100906.75;;;5.91;79.69
71239;BME280;61342;51.442;7.370;2023-03-04T01:26:08;100887.66;;;5.83;79.52
71239;BME280;61342;51.442;7.370;2023-03-04T01:27:08;100897.59;;;5.87;79.54
71239;BME280;61342;51.442;7.370;2023-03-04T01:28:08;100902.34;;;5.90;79.67
71239;BME280;61342;51.442;7.370;2023-03-04T01:29:10;100894.75;;;5.87;79.64
71239;BME280;61342;51.442;7.370;2023-03-04T01:30:11;100896.31;;;5.88;79.58
71239;BME280;61342;51.442;7.370;2023-03-04T01:31:11;100897.44;;;5.91;79.56
71239;BME280;61342;51.442;7.370;2023-03-04T01:32:12;100892.03;;;5.93;79.61
71239;BME280;61342;51.442;7.370;2023-03-04T01:33:12;100890.63;;;5.88;79.44
71239;BME280;61342;51.442;7.370;2023-03-04T01:34:12;100889.34;;;5.89;79.67
71239;BME280;61342;51.442;7.370;2023-03-04T01:35:13;100887.13;;;5.93;79.55
71239;BME280;61342;51.442;7.370;2023-03-04T01:36:13;100893.59;;;5.94;79.37
71239;BME280;61342;51.442;7.370;2023-03-04T01:37:14;100891.22;;;5.92;79.56
71239;BME280;61342;51.442;7.370;2023-03-04T01:38:14;100881.56;;;5.90;79.77
71239;BME280;61342;51.442;7.370;2023-03-04T01:39:14;100891.22;;;5.92;79.69
71239;BME280;61342;51.442;7.370;2023-03-04T01:40:15;100886.78;;;5.91;79.48
71239;BME280;61342;51.442;7.370;2023-03-04T01:41:18;100886.34;;;5.93;79.57
71239;BME280;61342;51.442;7.370;2023-03-04T01:42:23;100888.72;;;5.94;79.40
71239;BME280;61342;51.442;7.370;2023-03-04T01:43:28;100868.28;;;5.87;79.49
71239;BME280;61342;51.442;7.370;2023-03-04T01:44:29;100888.72;;;5.94;79.44
71239;BME280;61342;51.442;7.370;2023-03-04T01:45:30;100885.84;;;5.94;79.53
71239;BME280;61342;51.442;7.370;2023-03-04T01:46:31;100886.16;;;5.96;79.35
71239;BME280;61342;51.442;7.370;2023-03-04T01:47:33;100884.56;;;5.95;79.50
71239;BME280;61342;51.442;7.370;2023-03-04T01:48:36;100864.66;;;5.86;79.54
71239;BME280;61342;51.442;7.370;2023-03-04T01:49:38;100883.00;;;5.94;79.53
71239;BME280;61342;51.442;7.370;2023-03-04T01:50:38;100885.38;;;5.96;79.47
71239;BME280;61342;51.442;7.370;2023-03-04T01:51:48;100887.41;;;5.95;79.35
71239;BME280;61342;51.442;7.370;2023-03-04T01:52:49;100891.84;;;5.96;79.80
71239;BME280;61342;51.442;7.370;2023-03-04T01:53:50;100885.38;;;5.96;79.51
71239;BME280;61342;51.442;7.370;2023-03-04T01:54:54;100889.81;;;5.97;79.27
71239;BME280;61342;51.442;7.370;2023-03-04T01:56:01;100878.06;;;5.95;79.54
71239;BME280;61342;51.442;7.370;2023-03-04T01:57:21;100873.16;;;5.95;79.49
71239;BME280;61342;51.442;7.370;2023-03-04T01:58:28;100879.66;;;5.96;79.42
71239;BME280;61342;51.442;7.370;2023-03-04T01:59:30;100866.66;;;5.95;79.44
71239;BME280;61342;51.442;7.370;2023-03-04T02:00:32;100876.31;;;5.97;79.45
71239;BME280;61342;51.442;7.370;2023-03-04T02:01:33;100869.03;;;5.96;79.47
71239;BME280;61342;51.442;7.370;2023-03-04T02:02:34;100873.47;;;5.97;79.51
71239;BME280;61342;51.442;7.370;2023-03-04T02:03:34;100870.63;;;5.97;79.54
71239;BME280;61342;51.442;7.370;2023-03-04T02:04:34;100870.63;;;5.97;79.21
71239;BME280;61342;51.442;7.370;2023-03-04T02:05:39;100864.13;;;5.97;79.56
71239;BME280;61342;51.442;7.370;2023-03-04T02:06:40;100873.75;;;5.99;79.48
71239;BME280;61342;51.442;7.370;2023-03-04T02:07:41;100873.75;;;5.99;79.38
71239;BME280;61342;51.442;7.370;2023-03-04T02:08:41;100867.94;;;5.94;79.04
71239;BME280;61342;51.442;7.370;2023-03-04T02:09:42;100877.41;;;6.00;79.34
71239;BME280;61342;51.442;7.370;2023-03-04T02:10:43;100873.31;;;6.01;79.37
71239;BME280;61342;51.442;7.370;2023-03-04T02:11:45;100873.47;;;5.97;79.62
71239;BME280;61342;51.442;7.370;2023-03-04T02:12:45;100867.44;;;5.95;79.34
71239;BME280;61342;51.442;7.370;2023-03-04T02:13:46;100867.44;;;5.95;79.30
71239;BME280;61342;51.442;7.370;2023-03-04T02:14:46;100873.75;;;5.99;79.64
71239;BME280;61342;51.442;7.370;2023-03-04T02:15:47;100875.66;;;6.02;79.09
71239;BME280;61342;51.442;7.370;2023-03-04T02:16:49;100862.53;;;5.96;79.32
71239;BME280;61342;51.442;7.370;2023-03-04T02:17:49;100870.63;;;5.97;79.12
71239;BME280;61342;51.442;7.370;2023-03-04T02:18:51;100862.34;;;5.99;79.13
71239;BME280;61342;51.442;7.370;2023-03-04T02:20:10;100871.22;;;6.01;79.18
71239;BME280;61342;51.442;7.370;2023-03-04T02:22:18;100872.50;;;6.00;79.33
71239;BME280;61342;51.442;7.370;2023-03-04T02:23:25;100869.97;;;6.02;79.28
71239;BME280;61342;51.442;7.370;2023-03-04T02:24:51;100867.75;;;5.97;79.52
71239;BME280;61342;51.442;7.370;2023-03-04T02:27:13;100861.56;;;5.99;79.47
71239;BME280;61342;51.442;7.370;2023-03-04T02:28:14;100865.19;;;5.99;79.26
71239;BME280;61342;51.442;7.370;2023-03-04T02:29:15;100862.66;;;6.01;79.31
71239;BME280;61342;51.442;7.370;2023-03-04T02:30:20;100862.66;;;6.01;79.23
71239;BME280;61342;51.442;7.370;2023-03-04T02:32:34;100854.75;;;5.96;79.37
71239;BME280;61342;51.442;7.370;2023-03-04T02:33:35;100862.66;;;6.01;79.38
71239;BME280;61342;51.442;7.370;2023-03-04T02:34:35;100860.31;;;6.00;79.28
71239;BME280;61342;51.442;7.370;2023-03-04T02:35:36;100863.94;;;6.00;79.45
71239;BME280;61342;51.442;7.370;2023-03-04T02:36:36;100857.44;;;6.00;79.41
71239;BME280;61342;51.442;7.370;2023-03-04T02:37:37;100865.53;;;6.01;79.01
71239;BME280;61342;51.442;7.370;2023-03-04T02:38:37;100861.41;;;6.02;79.43
71239;BME280;61342;51.442;7.370;2023-03-04T02:39:42;100855.38;;;6.00;79.36
71239;BME280;61342;51.442;7.370;2023-03-04T02:40:46;100847.78;;;5.97;79.13
71239;BME280;61342;51.442;7.370;2023-03-04T02:41:49;100860.09;;;6.03;79.15
71239;BME280;61342;51.442;7.370;2023-03-04T02:42:49;100849.97;;;6.02;79.20
71239;BME280;61342;51.442;7.370;2023-03-04T02:43:52;100850.75;;;6.03;79.16
71239;BME280;61342;51.442;7.370;2023-03-04T02:45:00;100849.38;;;5.98;79.04
71239;BME280;61342;51.442;7.370;2023-03-04T02:46:00;100856.97;;;6.01;79.02
71239;BME280;61342;51.442;7.370;2023-03-04T02:47:02;100855.69;;;6.02;79.13
71239;BME280;61342;51.442;7.370;2023-03-04T02:48:03;100849.97;;;6.02;79.18
71239;BME280;61342;51.442;7.370;2023-03-04T02:49:03;100854.09;;;6.01;79.28
71239;BME280;61342;51.442;7.370;2023-03-04T02:50:04;100845.22;;;5.99;79.29
71239;BME280;61342;51.442;7.370;2023-03-04T02:51:04;100846.66;;;6.04;79.04
71239;BME280;61342;51.442;7.370;2023-03-04T02:52:16;100845.06;;;6.03;79.27
71239;BME280;61342;51.442;7.370;2023-03-04T02:53:18;100858.53;;;6.02;79.03
71239;BME280;61342;51.442;7.370;2023-03-04T02:54:21;100845.84;;;6.03;79.25
71239;BME280;61342;51.442;7.370;2023-03-04T02:55:22;100851.53;;;6.03;79.02
71239;BME280;61342;51.442;7.370;2023-03-04T02:56:22;100851.53;;;6.03;79.07
71239;BME280;61342;51.442;7.370;2023-03-04T02:57:22;100849.97;;;6.02;79.02
71239;BME280;61342;51.442;7.370;2023-03-04T02:58:23;100850.75;;;6.03;78.90
71239;BME280;61342;51.442;7.370;2023-03-04T02:59:23;100845.84;;;6.03;79.32
71239;BME280;61342;51.442;7.370;2023-03-04T03:00:25;100845.84;;;6.03;79.28
71239;BME280;61342;51.442;7.370;2023-03-04T03:01:27;100846.31;;;6.02;79.11
71239;BME280;61342;51.442;7.370;2023-03-04T03:02:28;100845.06;;;6.03;79.07
71239;BME280;61342;51.442;7.370;2023-03-04T03:03:28;100838.25;;;6.00;79.02
71239;BME280;61342;51.442;7.370;2023-03-04T03:04:29;100835.41;;;6.00;78.72
71239;BME280;61342;51.442;7.370;2023-03-04T03:05:31;100834.41;;;6.03;78.72
71239;BME280;61342;51.442;7.370;2023-03-04T03:06:31;100844.28;;;6.02;78.76
71239;BME280;61342;51.442;7.370;2023-03-04T03:07:32;100832.88;;;6.02;78.75
71239;BME280;61342;51.442;7.370;2023-03-04T03:08:33;100831.28;;;6.01;78.84
71239;BME280;61342;51.442;7.370;2023-03-04T03:09:34;100833.66;;;6.03;78.65
71239;BME280;61342;51.442;7.370;2023-03-04T03:10:34;100832.06;;;6.02;78.65
71239;BME280;61342;51.442;7.370;2023-03-04T03:11:35;100835.22;;;6.04;78.52
71239;BME280;61342;51.442;7.370;2023-03-04T03:12:36;100835.41;;;6.00;78.62
71239;BME280;61342;51.442;7.370;2023-03-04T03:13:36;100829.69;;;6.00;78.78
71239;BME280;61342;51.442;7.370;2023-03-04T03:14:36;100838.88;;;6.04;78.72
71239;BME280;61342;51.442;7.370;2023-03-04T03:15:37;100834.41;;;6.03;78.66
71239;BME280;61342;51.442;7.370;2023-03-04T03:16:41;100837.59;;;6.05;78.46
71239;BME280;61342;51.442;7.370;2023-03-04T03:17:42;100833.47;;;6.06;78.71
71239;BME280;61342;51.442;7.370;2023-03-04T03:18:43;100831.56;;;6.03;78.85
71239;BME280;61342;51.442;7.370;2023-03-04T03:19:43;100822.41;;;5.99;78.62
71239;BME280;61342;51.442;7.370;2023-03-04T03:20:44;100819.69;;;6.05;78.72
71239;BME280;61342;51.442;7.370;2023-03-04T03:21:44;100831.41;;;6.07;78.75
71239;BME280;61342;51.442;7.370;2023-03-04T03:22:45;100833.47;;;6.06;78.68
71239;BME280;61342;51.442;7.370;2023-03-04T03:23:46;100830.91;;;6.08;78.68
71239;BME280;61342;51.442;7.370;2023-03-04T03:24:46;100826.47;;;6.07;78.97
71239;BME280;61342;51.442;7.370;2023-03-04T03:25:46;100826.47;;;6.07;78.67
71239;BME280;61342;51.442;7.370;2023-03-04T03:26:47;100831.72;;;6.09;78.59
71239;BME280;61342;51.442;7.370;2023-03-04T03:27:47;100830.13;;;6.08;78.91
71239;BME280;61342;51.442;7.370;2023-03-04T03:28:47;100818.88;;;6.04;79.06
71239;BME280;61342;51.442;7.370;2023-03-04T03:29:47;100827.75;;;6.06;78.86
71239;BME280;61342;51.442;7.370;2023-03-04T03:30:48;100824.91;;;6.06;78.77
71239;BME280;61342;51.442;7.370;2023-03-04T03:31:48;100824.44;;;6.08;79.02
71239;BME280;61342;51.442;7.370;2023-03-04T03:32:48;100814.28;;;6.07;79.05
71239;BME280;61342;51.442;7.370;2023-03-04T03:33:49;100833.28;;;6.10;78.94
71239;BME280;61342;51.442;7.370;2023-03-04T03:34:49;100814.44;;;6.03;79.04
71239;BME280;61342;51.442;7.370;2023-03-04T03:35:50;100824.22;;;6.11;78.94
71239;BME280;61342;51.442;7.370;2023-03-04T03:36:50;100819.22;;;6.06;78.78
71239;BME280;61342;51.442;7.370;2023-03-04T03:37:50;100821.84;;;6.10;78.91
71239;BME280;61342;51.442;7.370;2023-03-04T03:38:51;100826.47;;;6.07;78.69
71239;BME280;61342;51.442;7.370;2023-03-04T03:39:51;100820.31;;;6.09;78.93
71239;BME280;61342;51.442;7.370;2023-03-04T03:40:51;100828.06;;;6.08;79.02
71239;BME280;61342;51.442;7.370;2023-03-04T03:41:52;100813.00;;;6.08;78.99
71239;BME280;61342;51.442;7.370;2023-03-04T03:42:53;100814.59;;;6.09;78.96
71239;BME280;61342;51.442;7.370;2023-03-04T03:43:53;100822.66;;;6.10;78.95
71239;BME280;61342;51.442;7.370;2023-03-04T03:44:53;100820.31;;;6.09;78.70
71239;BME280;61342;51.442;7.370;2023-03-04T03:45:55;100822.66;;;6.10;78.80
71239;BME280;61342;51.442;7.370;2023-03-04T03:46:55;100814.88;;;6.11;79.00
71239;BME280;61342;51.442;7.370;2023-03-04T03:47:55;100812.53;;;6.09;78.74
71239;BME280;61342;51.442;7.370;2023-03-04T03:48:56;100817.91;;;6.07;78.88
71239;BME280;61342;51.442;7.370;2023-03-04T03:49:56;100820.75;;;6.07;78.99
71239;BME280;61342;51.442;7.370;2023-03-04T03:50:56;100816.16;;;6.10;78.77
71239;BME280;61342;51.442;7.370;2023-03-04T03:51:57;100822.97;;;6.12;78.81
71239;BME280;61342;51.442;7.370;2023-03-04T03:52:57;100806.50;;;6.07;78.82
71239;BME280;61342;51.442;7.370;2023-03-04T03:53:57;100822.97;;;6.12;78.74
71239;BME280;61342;51.442;7.370;2023-03-04T03:54:58;100813.78;;;6.08;78.94
71239;BME280;61342;51.442;7.370;2023-03-04T03:56:00;100826.63;;;6.13;78.88
71239;BME280;61342;51.442;7.370;2023-03-04T03:57:01;100813.00;;;6.08;78.49
71239;BME280;61342;51.442;7.370;2023-03-04T03:58:01;100825.03;;;6.12;78.94
71239;BME280;61342;51.442;7.370;2023-03-04T03:59:02;100815.38;;;6.09;78.94
71239;BME280;61342;51.442;7.370;2023-03-04T04:00:03;100820.09;;;6.12;78.86
71239;BME280;61342;51.442;7.370;2023-03-04T04:01:04;100825.81;;;6.12;78.88
71239;BME280;61342;51.442;7.370;2023-03-04T04:02:04;100820.09;;;6.12;78.86
71239;BME280;61342;51.442;7.370;2023-03-04T04:03:05;100813.63;;;6.12;78.95
71239;BME280;61342;51.442;7.370;2023-03-04T04:04:05;100815.97;;;6.13;79.11
71239;BME280;61342;51.442;7.370;2023-03-04T04:05:07;100815.97;;;6.13;79.05
71239;BME280;61342;51.442;7.370;2023-03-04T04:06:07;100816.75;;;6.14;78.96
71239;BME280;61342;51.442;7.370;2023-03-04T04:07:08;100809.50;;;6.13;78.78
71239;BME280;61342;51.442;7.370;2023-03-04T04:08:16;100823.28;;;6.14;78.94
71239;BME280;61342;51.442;7.370;2023-03-04T04:09:16;100821.69;;;6.13;79.04
71239;BME280;61342;51.442;7.370;2023-03-04T04:10:17;100806.81;;;6.09;78.57
71239;BME280;61342;51.442;7.370;2023-03-04T04:11:17;100822.19;;;6.12;79.02
71239;BME280;61342;51.442;7.370;2023-03-04T04:12:18;100819.31;;;6.12;78.79
71239;BME280;61342;51.442;7.370;2023-03-04T04:13:18;100818.34;;;6.15;78.89
71239;BME280;61342;51.442;7.370;2023-03-04T04:14:18;100815.97;;;6.13;79.07
71239;BME280;61342;51.442;7.370;2023-03-04T04:15:19;100816.75;;;6.14;79.03
71239;BME280;61342;51.442;7.370;2023-03-04T04:16:19;100817.56;;;6.14;79.04
71239;BME280;61342;51.442;7.370;2023-03-04T04:17:20;100815.97;;;6.13;79.21
71239;BME280;61342;51.442;7.370;2023-03-04T04:18:20;100811.84;;;6.14;79.07
71239;BME280;61342;51.442;7.370;2023-03-04T04:19:20;100813.13;;;6.13;78.82
71239;BME280;61342;51.442;7.370;2023-03-04T04:20:21;100808.69;;;6.12;78.86
71239;BME280;61342;51.442;7.370;2023-03-04T04:21:21;100812.63;;;6.15;78.96
71239;BME280;61342;51.442;7.370;2023-03-04T04:22:22;100803.78;;;6.13;78.84
71239;BME280;61342;51.442;7.370;2023-03-04T04:23:22;100802.97;;;6.12;79.06
71239;BME280;61342;51.442;7.370;2023-03-04T04:24:23;100807.41;;;6.13;78.83
71239;BME280;61342;51.442;7.370;2023-03-04T04:25:23;100811.84;;;6.14;78.74
71239;BME280;61342;51.442;7.370;2023-03-04T04:26:23;100809.28;;;6.16;79.33
71239;BME280;61342;51.442;7.370;2023-03-04T04:27:24;100810.28;;;6.13;79.02
71239;BME280;61342;51.442;7.370;2023-03-04T04:28:24;100804.75;;;6.10;79.08
71239;BME280;61342;51.442;7.370;2023-03-04T04:29:25;100805.34;;;6.14;78.89
71239;BME280;61342;51.442;7.370;2023-03-04T04:30:25;100815.00;;;6.16;78.78
71239;BME280;61342;51.442;7.370;2023-03-04T04:31:25;100807.41;;;6.13;79.24
71239;BME280;61342;51.442;7.370;2023-03-04T04:32:26;100817.56;;;6.14;79.06
71239;BME280;61342;51.442;7.370;2023-03-04T04:33:26;100816.75;;;6.14;79.23
71239;BME280;61342;51.442;7.370;2023-03-04T04:34:26;100810.59;;;6.15;79.13
71239;BME280;61342;51.442;7.370;2023-03-04T04:35:27;100804.56;;;6.13;78.91
71239;BME280;61342;51.442;7.370;2023-03-04T04:36:27;100809.50;;;6.13;79.09
71239;BME280;61342;51.442;7.370;2023-03-04T04:37:28;100809.00;;;6.14;79.14
71239;BME280;61342;51.442;7.370;2023-03-04T04:38:28;100813.91;;;6.14;78.93
71239;BME280;61342;51.442;7.370;2023-03-04T04:39:28;100809.50;;;6.13;79.05
71239;BME280;61342;51.442;7.370;2023-03-04T04:40:29;100814.22;;;6.16;79.05
71239;BME280;61342;51.442;7.370;2023-03-04T04:41:33;100815.00;;;6.16;78.99
71239;BME280;61342;51.442;7.370;2023-03-04T04:42:35;100812.81;;;6.11;79.37
71239;BME280;61342;51.442;7.370;2023-03-04T04:43:35;100815.97;;;6.13;79.35
71239;BME280;61342;51.442;7.370;2023-03-04T04:44:35;100817.56;;;6.14;79.12
71239;BME280;61342;51.442;7.370;2023-03-04T04:45:37;100815.19;;;6.13;79.34
71239;BME280;61342;51.442;7.370;2023-03-04T04:46:38;100815.81;;;6.17;79.10
71239;BME280;61342;51.442;7.370;2023-03-04T04:47:38;100817.56;;;6.14;79.06
71239;BME280;61342;51.442;7.370;2023-03-04T04:48:39;100817.56;;;6.14;79.15
71239;BME280;61342;51.442;7.370;2023-03-04T04:49:39;100818.50;;;6.11;79.17
71239;BME280;61342;51.442;7.370;2023-03-04T04:50:40;100816.75;;;6.14;79.23
71239;BME280;61342;51.442;7.370;2023-03-04T04:51:40;100815.66;;;6.11;79.31
71239;BME280;61342;51.442;7.370;2023-03-04T04:52:40;100814.41;;;6.12;79.28
71239;BME280;61342;51.442;7.370;2023-03-04T04:53:41;100814.72;;;6.14;78.92
71239;BME280;61342;51.442;7.370;2023-03-04T04:54:41;100817.84;;;6.16;79.01
71239;BME280;61342;51.442;7.370;2023-03-04T04:55:41;100821.19;;;6.15;79.21
71239;BME280;61342;51.442;7.370;2023-03-04T04:56:42;100820.09;;;6.12;79.03
71239;BME280;61342;51.442;7.370;2023-03-04T04:57:42;100826.91;;;6.15;79.20
71239;BME280;61342;51.442;7.370;2023-03-04T04:58:43;100824.53;;;6.13;79.19
71239;BME280;61342;51.442;7.370;2023-03-04T04:59:43;100817.56;;;6.14;79.22
71239;BME280;61342;51.442;7.370;2023-03-04T05:00:44;100822.97;;;6.12;79.16
71239;BME280;61342;51.442;7.370;2023-03-04T05:01:44;100815.97;;;6.13;79.18
71239;BME280;61342;51.442;7.370;2023-03-04T05:02:44;100820.91;;;6.13;79.32
71239;BME280;61342;51.442;7.370;2023-03-04T05:03:44;100819.63;;;6.14;79.40
71239;BME280;61342;51.442;7.370;2023-03-04T05:04:45;100821.69;;;6.13;79.26
71239;BME280;61342;51.442;7.370;2023-03-04T05:05:45;100822.47;;;6.14;79.32
71239;BME280;61342;51.442;7.370;2023-03-04T05:06:45;100821.69;;;6.13;79.14
71239;BME280;61342;51.442;7.370;2023-03-04T05:07:46;100818.06;;;6.13;79.28
71239;BME280;61342;51.442;7.370;2023-03-04T05:08:46;100820.41;;;6.14;79.47
71239;BME280;61342;51.442;7.370;2023-03-04T05:09:46;100823.56;;;6.16;79.20
71239;BME280;61342;51.442;7.370;2023-03-04T05:10:47;100820.09;;;6.12;79.42
71239;BME280;61342;51.442;7.370;2023-03-04T05:11:47;100811.53;;;6.12;79.01
71239;BME280;61342;51.442;7.370;2023-03-04T05:12:48;100823.56;;;6.16;79.26
71239;BME280;61342;51.442;7.370;2023-03-04T05:13:49;100822.47;;;6.14;79.39
71239;BME280;61342;51.442;7.370;2023-03-04T05:14:49;100827.72;;;6.15;79.28
71239;BME280;61342;51.442;7.370;2023-03-04T05:15:51;100824.06;;;6.15;79.45
71239;BME280;61342;51.442;7.370;2023-03-04T05:16:52;100820.59;;;6.11;79.29
71239;BME280;61342;51.442;7.370;2023-03-04T05:17:53;100822.00;;;6.15;79.17
71239;BME280;61342;51.442;7.370;2023-03-04T05:18:53;100823.28;;;6.14;79.16
71239;BME280;61342;51.442;7.370;2023-03-04T05:19:53;100808.88;;;6.09;79.45
71239;BME280;61342;51.442;7.370;2023-03-04T05:20:56;100816.75;;;6.14;79.27
71239;BME280;61342;51.442;7.370;2023-03-04T05:21:56;100816.31;;;6.15;79.24
71239;BME280;61342;51.442;7.370;2023-03-04T05:22:57;100817.56;;;6.14;79.57
71239;BME280;61342;51.442;7.370;2023-03-04T05:23:57;100813.63;;;6.12;79.27
71239;BME280;61342;51.442;7.370;2023-03-04T05:24:57;100809.00;;;6.14;79.44
71239;BME280;61342;51.442;7.370;2023-03-04T05:25:58;100810.28;;;6.13;79.43
71239;BME280;61342;51.442;7.370;2023-03-04T05:27:00;100811.84;;;6.14;79.47